Norfolk, Virginia
Traffic Map
Current Weather Conditions
Norfolk, Virginia
Few Clouds
Few Clouds
23°
Feels Like: 23°
Wind Chill: 23° Ceiling: Unl
Heat Index: 23° Visibility: 8mi
Dew Point: 22° Wind: 5mph
Humidity: 91% Direction: 190° (S)
Pressure: 29.89in Gusts: 0mph
Raw Report DataKORF 030751Z AUTO 19004KT 8SM FEW100 23/22 A2989 RMK AO2 SLP120 T02330217 TSNO
Traffic Incident Summary
Active as of:
Severity:
Category:
InformationThere was an issue retrieving the traffic information for this location. Please try a different location or try again shortly.
Advertisements
Track Severe Weather on mobile